sensor_id;sensor_type;location;lat;lon;timestamp;pressure;altitude;pressure_sealevel;temperature;humidity
36284;BME280;56085;48.910;9.478;2022-11-13T00:00:27;99222.69;;;1.93;82.64
36284;BME280;56085;48.910;9.478;2022-11-13T00:02:53;99224.31;;;1.94;82.79
36284;BME280;56085;48.910;9.478;2022-11-13T00:05:18;99221.06;;;1.92;83.15
36284;BME280;56085;48.910;9.478;2022-11-13T00:07:43;99224.88;;;1.91;82.96
36284;BME280;56085;48.910;9.478;2022-11-13T00:10:08;99222.44;;;1.89;83.00
36284;BME280;56085;48.910;9.478;2022-11-13T00:12:34;99218.09;;;1.88;82.89
36284;BME280;56085;48.910;9.478;2022-11-13T00:14:59;99214.00;;;1.86;82.89
36284;BME280;56085;48.910;9.478;2022-11-13T00:17:24;99212.09;;;1.86;83.08
36284;BME280;56085;48.910;9.478;2022-11-13T00:19:50;99206.63;;;1.86;83.06
36284;BME280;56085;48.910;9.478;2022-11-13T00:22:15;99207.75;;;1.80;83.45
36284;BME280;56085;48.910;9.478;2022-11-13T00:24:40;99199.88;;;1.79;83.26
36284;BME280;56085;48.910;9.478;2022-11-13T00:27:06;99195.81;;;1.71;83.32
36284;BME280;56085;48.910;9.478;2022-11-13T00:29:31;99198.03;;;1.64;83.49
36284;BME280;56085;48.910;9.478;2022-11-13T00:31:57;99195.03;;;1.65;83.29
36284;BME280;56085;48.910;9.478;2022-11-13T00:34:22;99191.50;;;1.60;83.36
36284;BME280;56085;48.910;9.478;2022-11-13T00:36:47;99183.09;;;1.51;83.12
36284;BME280;56085;48.910;9.478;2022-11-13T00:39:13;99183.09;;;1.46;83.68
36284;BME280;56085;48.910;9.478;2022-11-13T00:41:38;99183.09;;;1.46;83.80
36284;BME280;56085;48.910;9.478;2022-11-13T00:44:03;99176.88;;;1.35;83.49
36284;BME280;56085;48.910;9.478;2022-11-13T00:46:29;99170.09;;;1.32;83.56
36284;BME280;56085;48.910;9.478;2022-11-13T00:48:54;99174.44;;;1.28;83.69
36284;BME280;56085;48.910;9.478;2022-11-13T00:51:19;99171.22;;;1.21;84.08
36284;BME280;56085;48.910;9.478;2022-11-13T00:53:45;99173.38;;;1.24;83.75
36284;BME280;56085;48.910;9.478;2022-11-13T00:56:10;99168.19;;;1.22;83.75
36284;BME280;56085;48.910;9.478;2022-11-13T00:58:36;99165.19;;;1.24;83.66
36284;BME280;56085;48.910;9.478;2022-11-13T01:01:04;99159.22;;;1.22;84.02
36284;BME280;56085;48.910;9.478;2022-11-13T01:03:31;99164.72;;;1.17;84.28
36284;BME280;56085;48.910;9.478;2022-11-13T01:05:56;99158.41;;;1.16;84.41
36284;BME280;56085;48.910;9.478;2022-11-13T01:08:21;99159.53;;;1.05;83.75
36284;BME280;56085;48.910;9.478;2022-11-13T01:10:48;99156.84;;;0.95;84.41
36284;BME280;56085;48.910;9.478;2022-11-13T01:13:14;99149.50;;;0.90;84.07
36284;BME280;56085;48.910;9.478;2022-11-13T01:15:42;99155.00;;;0.85;84.61
36284;BME280;56085;48.910;9.478;2022-11-13T01:18:07;99154.72;;;0.76;84.46
36284;BME280;56085;48.910;9.478;2022-11-13T01:20:34;99152.81;;;0.77;84.11
36284;BME280;56085;48.910;9.478;2022-11-13T01:22:59;99147.66;;;0.70;84.36
36284;BME280;56085;48.910;9.478;2022-11-13T01:25:26;99152.00;;;0.71;84.05
36284;BME280;56085;48.910;9.478;2022-11-13T01:27:51;99149.03;;;0.67;84.03
36284;BME280;56085;48.910;9.478;2022-11-13T01:30:16;99157.19;;;0.62;84.49
36284;BME280;56085;48.910;9.478;2022-11-13T01:32:42;99140.88;;;0.67;84.18
36284;BME280;56085;48.910;9.478;2022-11-13T01:35:07;99139.47;;;0.70;84.78
36284;BME280;56085;48.910;9.478;2022-11-13T01:37:33;99131.59;;;0.74;84.50
36284;BME280;56085;48.910;9.478;2022-11-13T01:39:58;99132.13;;;0.76;84.92
36284;BME280;56085;48.910;9.478;2022-11-13T01:42:23;99120.94;;;0.77;84.54
36284;BME280;56085;48.910;9.478;2022-11-13T01:44:51;99119.63;;;0.75;85.05
36284;BME280;56085;48.910;9.478;2022-11-13T01:47:18;99122.63;;;0.68;84.90
36284;BME280;56085;48.910;9.478;2022-11-13T01:49:45;99117.19;;;0.68;84.98
36284;BME280;56085;48.910;9.478;2022-11-13T01:52:24;99110.66;;;0.69;84.53
36284;BME280;56085;48.910;9.478;2022-11-13T01:54:55;99111.72;;;0.73;85.14
36284;BME280;56085;48.910;9.478;2022-11-13T01:57:23;99103.00;;;0.76;85.32
36284;BME280;56085;48.910;9.478;2022-11-13T01:59:51;99106.25;;;0.83;84.95
36284;BME280;56085;48.910;9.478;2022-11-13T02:02:19;99104.06;;;0.91;84.93
36284;BME280;56085;48.910;9.478;2022-11-13T02:04:45;99098.03;;;0.99;85.11
36284;BME280;56085;48.910;9.478;2022-11-13T02:07:12;99098.56;;;1.01;85.48
36284;BME280;56085;48.910;9.478;2022-11-13T02:09:43;99098.84;;;0.99;85.14
36284;BME280;56085;48.910;9.478;2022-11-13T02:12:14;99095.00;;;1.00;85.43
36284;BME280;56085;48.910;9.478;2022-11-13T02:14:43;99096.13;;;0.94;85.10
36284;BME280;56085;48.910;9.478;2022-11-13T02:17:12;99084.72;;;0.92;85.65
36284;BME280;56085;48.910;9.478;2022-11-13T02:19:43;99076.56;;;0.87;85.54
36284;BME280;56085;48.910;9.478;2022-11-13T02:22:21;99070.31;;;0.81;85.47
36284;BME280;56085;48.910;9.478;2022-11-13T02:24:51;99066.22;;;0.79;85.49
36284;BME280;56085;48.910;9.478;2022-11-13T02:27:23;99063.25;;;0.75;85.31
36284;BME280;56085;48.910;9.478;2022-11-13T02:29:50;99068.47;;;0.72;85.37
36284;BME280;56085;48.910;9.478;2022-11-13T02:32:15;99061.94;;;0.62;85.45
36284;BME280;56085;48.910;9.478;2022-11-13T02:34:40;99062.78;;;0.63;85.71
36284;BME280;56085;48.910;9.478;2022-11-13T02:37:06;99061.41;;;0.55;85.94
36284;BME280;56085;48.910;9.478;2022-11-13T02:39:31;99055.44;;;0.53;85.79
36284;BME280;56085;48.910;9.478;2022-11-13T02:41:56;99060.88;;;0.48;85.58
36284;BME280;56085;48.910;9.478;2022-11-13T02:44:22;99060.63;;;0.39;86.18
36284;BME280;56085;48.910;9.478;2022-11-13T02:46:47;99057.94;;;0.29;85.66
36284;BME280;56085;48.910;9.478;2022-11-13T02:49:12;99062.00;;;0.26;85.72
36284;BME280;56085;48.910;9.478;2022-11-13T02:51:38;99048.13;;;0.17;85.98
36284;BME280;56085;48.910;9.478;2022-11-13T02:54:03;99062.56;;;0.13;86.18
36284;BME280;56085;48.910;9.478;2022-11-13T02:56:28;99050.09;;;0.12;85.85
36284;BME280;56085;48.910;9.478;2022-11-13T02:58:54;99047.63;;;0.10;86.35
36284;BME280;56085;48.910;9.478;2022-11-13T03:01:19;99046.53;;;0.11;85.97
36284;BME280;56085;48.910;9.478;2022-11-13T03:03:45;99050.34;;;0.10;86.25
36284;BME280;56085;48.910;9.478;2022-11-13T03:06:10;99052.50;;;0.08;85.71
36284;BME280;56085;48.910;9.478;2022-11-13T03:08:35;99048.44;;;0.06;85.96
36284;BME280;56085;48.910;9.478;2022-11-13T03:11:06;99043.00;;;0.06;85.89
36284;BME280;56085;48.910;9.478;2022-11-13T03:13:31;99040.28;;;0.06;86.00
36284;BME280;56085;48.910;9.478;2022-11-13T03:16:05;99038.94;;;-0.02;85.91
36284;BME280;56085;48.910;9.478;2022-11-13T03:18:30;99039.75;;;-0.12;85.83
36284;BME280;56085;48.910;9.478;2022-11-13T03:20:55;99043.03;;;-0.20;86.11
36284;BME280;56085;48.910;9.478;2022-11-13T03:23:20;99044.66;;;-0.24;86.04
36284;BME280;56085;48.910;9.478;2022-11-13T03:25:46;99032.69;;;-0.23;85.99
36284;BME280;56085;48.910;9.478;2022-11-13T03:28:11;99033.50;;;-0.23;86.07
36284;BME280;56085;48.910;9.478;2022-11-13T03:30:36;99039.19;;;-0.19;86.25
36284;BME280;56085;48.910;9.478;2022-11-13T03:33:01;99037.03;;;-0.17;86.68
36284;BME280;56085;48.910;9.478;2022-11-13T03:35:27;99036.25;;;-0.17;86.23
36284;BME280;56085;48.910;9.478;2022-11-13T03:37:53;99034.03;;;-0.21;86.76
36284;BME280;56085;48.910;9.478;2022-11-13T03:40:18;99032.69;;;-0.18;86.81
36284;BME280;56085;48.910;9.478;2022-11-13T03:42:43;99041.66;;;-0.17;86.99
36284;BME280;56085;48.910;9.478;2022-11-13T03:45:09;99037.28;;;-0.13;86.54
36284;BME280;56085;48.910;9.478;2022-11-13T03:47:34;99028.06;;;0.13;86.98
36284;BME280;56085;48.910;9.478;2022-11-13T03:49:59;99026.97;;;0.04;86.42
36284;BME280;56085;48.910;9.478;2022-11-13T03:52:25;99034.84;;;0.01;86.87
36284;BME280;56085;48.910;9.478;2022-11-13T03:54:50;99038.09;;;0.03;87.21
36284;BME280;56085;48.910;9.478;2022-11-13T03:57:15;99034.84;;;0.01;86.60
36284;BME280;56085;48.910;9.478;2022-11-13T03:59:40;99026.69;;;0.01;86.86
36284;BME280;56085;48.910;9.478;2022-11-13T04:02:06;99027.78;;;-0.01;86.70
36284;BME280;56085;48.910;9.478;2022-11-13T04:04:31;99027.53;;;-0.04;87.01
36284;BME280;56085;48.910;9.478;2022-11-13T04:06:56;99017.47;;;-0.09;87.16
36284;BME280;56085;48.910;9.478;2022-11-13T04:09:21;99030.50;;;-0.11;87.22
36284;BME280;56085;48.910;9.478;2022-11-13T04:11:47;99026.16;;;-0.22;86.89
36284;BME280;56085;48.910;9.478;2022-11-13T04:14:12;99024.81;;;-0.25;87.23
36284;BME280;56085;48.910;9.478;2022-11-13T04:16:37;99026.44;;;-0.29;86.80
36284;BME280;56085;48.910;9.478;2022-11-13T04:19:02;99015.84;;;-0.30;87.11
36284;BME280;56085;48.910;9.478;2022-11-13T04:21:28;99015.84;;;-0.36;86.99
36284;BME280;56085;48.910;9.478;2022-11-13T04:23:53;99013.13;;;-0.36;87.36
36284;BME280;56085;48.910;9.478;2022-11-13T04:26:19;99010.66;;;-0.37;87.37
36284;BME280;56085;48.910;9.478;2022-11-13T04:28:44;99009.88;;;-0.38;86.93
36284;BME280;56085;48.910;9.478;2022-11-13T04:31:09;98997.63;;;-0.45;86.97
36284;BME280;56085;48.910;9.478;2022-11-13T04:33:34;99000.88;;;-0.48;86.95
36284;BME280;56085;48.910;9.478;2022-11-13T04:36:00;99000.06;;;-0.49;87.15
36284;BME280;56085;48.910;9.478;2022-11-13T04:38:25;99004.44;;;-0.48;87.45
36284;BME280;56085;48.910;9.478;2022-11-13T04:40:51;98995.72;;;-0.45;87.61
36284;BME280;56085;48.910;9.478;2022-11-13T04:43:36;98987.84;;;-0.46;87.83
36284;BME280;56085;48.910;9.478;2022-11-13T04:46:01;98995.16;;;-0.47;87.35
36284;BME280;56085;48.910;9.478;2022-11-13T04:48:27;98982.69;;;-0.48;87.67
36284;BME280;56085;48.910;9.478;2022-11-13T04:50:52;98981.06;;;-0.49;87.07
36284;BME280;56085;48.910;9.478;2022-11-13T04:53:17;98976.44;;;-0.54;87.05
36284;BME280;56085;48.910;9.478;2022-11-13T04:55:42;98980.50;;;-0.56;87.71
36284;BME280;56085;48.910;9.478;2022-11-13T04:58:08;98979.16;;;-0.54;87.25
36284;BME280;56085;48.910;9.478;2022-11-13T05:00:33;98976.69;;;-0.60;87.65
36284;BME280;56085;48.910;9.478;2022-11-13T05:02:58;98977.53;;;-0.70;87.82
36284;BME280;56085;48.910;9.478;2022-11-13T05:05:24;98979.41;;;-0.76;87.62
36284;BME280;56085;48.910;9.478;2022-11-13T05:07:49;98967.47;;;-0.80;87.68
36284;BME280;56085;48.910;9.478;2022-11-13T05:10:14;98975.03;;;-0.82;88.18
36284;BME280;56085;48.910;9.478;2022-11-13T05:12:39;98972.59;;;-0.89;87.94
36284;BME280;56085;48.910;9.478;2022-11-13T05:15:05;98970.69;;;-0.93;87.61
36284;BME280;56085;48.910;9.478;2022-11-13T05:17:31;98969.88;;;-0.94;87.85
36284;BME280;56085;48.910;9.478;2022-11-13T05:19:56;98965.53;;;-0.90;87.24
36284;BME280;56085;48.910;9.478;2022-11-13T05:22:21;98967.72;;;-0.86;87.93
36284;BME280;56085;48.910;9.478;2022-11-13T05:24:47;98961.75;;;-0.83;88.08
36284;BME280;56085;48.910;9.478;2022-11-13T05:27:12;98962.56;;;-0.78;88.15
36284;BME280;56085;48.910;9.478;2022-11-13T05:29:37;98963.66;;;-0.74;88.16
36284;BME280;56085;48.910;9.478;2022-11-13T05:32:03;98963.94;;;-0.70;88.02
36284;BME280;56085;48.910;9.478;2022-11-13T05:34:28;98962.56;;;-0.67;88.25
36284;BME280;56085;48.910;9.478;2022-11-13T05:36:53;98954.97;;;-0.71;87.95
36284;BME280;56085;48.910;9.478;2022-11-13T05:39:18;98949.25;;;-0.69;88.03
36284;BME280;56085;48.910;9.478;2022-11-13T05:41:44;98939.22;;;-0.58;88.46
36284;BME280;56085;48.910;9.478;2022-11-13T05:44:09;98935.13;;;-0.56;88.13
36284;BME280;56085;48.910;9.478;2022-11-13T05:46:34;98936.50;;;-0.53;88.03
36284;BME280;56085;48.910;9.478;2022-11-13T05:49:00;98935.94;;;-0.50;88.16
36284;BME280;56085;48.910;9.478;2022-11-13T05:51:31;98943.56;;;-0.52;88.41
36284;BME280;56085;48.910;9.478;2022-11-13T05:53:57;98943.00;;;-0.54;87.94
36284;BME280;56085;48.910;9.478;2022-11-13T05:56:31;98935.97;;;-0.60;88.57
36284;BME280;56085;48.910;9.478;2022-11-13T05:58:57;98957.13;;;-0.67;88.35
36284;BME280;56085;48.910;9.478;2022-11-13T06:01:29;98963.66;;;-0.74;87.77
36284;BME280;56085;48.910;9.478;2022-11-13T06:03:56;98956.31;;;-0.73;87.83
36284;BME280;56085;48.910;9.478;2022-11-13T06:06:23;98954.69;;;-0.79;88.45
36284;BME280;56085;48.910;9.478;2022-11-13T06:08:50;98961.22;;;-0.85;88.03
36284;BME280;56085;48.910;9.478;2022-11-13T06:11:18;98949.81;;;-0.88;88.54
36284;BME280;56085;48.910;9.478;2022-11-13T06:13:44;98952.81;;;-0.89;88.03
36284;BME280;56085;48.910;9.478;2022-11-13T06:16:17;98951.69;;;-0.88;88.32
36284;BME280;56085;48.910;9.478;2022-11-13T06:18:44;98959.03;;;-0.89;88.07
36284;BME280;56085;48.910;9.478;2022-11-13T06:21:12;98950.88;;;-0.83;88.81
36284;BME280;56085;48.910;9.478;2022-11-13T06:23:39;98956.31;;;-0.83;88.45
36284;BME280;56085;48.910;9.478;2022-11-13T06:26:10;98947.91;;;-0.77;88.25
36284;BME280;56085;48.910;9.478;2022-11-13T06:28:37;98953.88;;;-0.69;88.86
36284;BME280;56085;48.910;9.478;2022-11-13T06:31:07;98952.00;;;-0.64;88.83
36284;BME280;56085;48.910;9.478;2022-11-13T06:33:33;98950.34;;;-0.65;88.79
36284;BME280;56085;48.910;9.478;2022-11-13T06:36:08;98942.75;;;-0.58;88.45
36284;BME280;56085;48.910;9.478;2022-11-13T06:38:36;98942.22;;;-0.55;89.04
36284;BME280;56085;48.910;9.478;2022-11-13T06:41:02;98940.84;;;-0.47;88.51
36284;BME280;56085;48.910;9.478;2022-11-13T06:43:28;98940.31;;;-0.44;88.71
36284;BME280;56085;48.910;9.478;2022-11-13T06:45:54;98943.03;;;-0.39;89.09
36284;BME280;56085;48.910;9.478;2022-11-13T06:48:20;98937.31;;;-0.37;88.72
36284;BME280;56085;48.910;9.478;2022-11-13T06:50:45;98946.00;;;-0.30;88.67
36284;BME280;56085;48.910;9.478;2022-11-13T06:53:10;98941.91;;;-0.32;89.39
36284;BME280;56085;48.910;9.478;2022-11-13T06:55:42;98936.47;;;-0.32;89.37
36284;BME280;56085;48.910;9.478;2022-11-13T06:58:07;98938.09;;;-0.21;89.45
36284;BME280;56085;48.910;9.478;2022-11-13T07:00:32;98937.81;;;-0.20;88.83
36284;BME280;56085;48.910;9.478;2022-11-13T07:02:57;98940.28;;;-0.18;89.61
36284;BME280;56085;48.910;9.478;2022-11-13T07:05:23;98936.19;;;-0.15;89.56
36284;BME280;56085;48.910;9.478;2022-11-13T07:07:48;98928.28;;;-0.12;89.18
36284;BME280;56085;48.910;9.478;2022-11-13T07:10:13;98924.22;;;-0.09;88.97
36284;BME280;56085;48.910;9.478;2022-11-13T07:12:39;98915.25;;;-0.10;89.35
36284;BME280;56085;48.910;9.478;2022-11-13T07:15:05;98912.22;;;-0.03;89.22
36284;BME280;56085;48.910;9.478;2022-11-13T07:17:31;98909.22;;;0.04;89.66
36284;BME280;56085;48.910;9.478;2022-11-13T07:19:56;98906.50;;;0.04;89.71
36284;BME280;56085;48.910;9.478;2022-11-13T07:22:21;98907.31;;;0.04;89.80
36284;BME280;56085;48.910;9.478;2022-11-13T07:24:47;98890.75;;;0.01;89.11
36284;BME280;56085;48.910;9.478;2022-11-13T07:27:12;98893.75;;;-0.01;89.73
36284;BME280;56085;48.910;9.478;2022-11-13T07:29:37;98889.69;;;-0.04;89.72
36284;BME280;56085;48.910;9.478;2022-11-13T07:32:03;98881.56;;;-0.19;89.79
36284;BME280;56085;48.910;9.478;2022-11-13T07:34:29;98886.47;;;-0.21;89.49
36284;BME280;56085;48.910;9.478;2022-11-13T07:36:54;98884.81;;;-0.22;89.40
36284;BME280;56085;48.910;9.478;2022-11-13T07:39:19;98878.31;;;-0.21;89.35
36284;BME280;56085;48.910;9.478;2022-11-13T07:41:46;98870.97;;;-0.21;89.51
36284;BME280;56085;48.910;9.478;2022-11-13T07:44:11;98875.03;;;-0.18;89.76
36284;BME280;56085;48.910;9.478;2022-11-13T07:46:37;98876.38;;;-0.10;89.55
36284;BME280;56085;48.910;9.478;2022-11-13T07:49:02;98874.44;;;0.01;89.94
36284;BME280;56085;48.910;9.478;2022-11-13T07:51:27;98864.66;;;0.05;89.74
36284;BME280;56085;48.910;9.478;2022-11-13T07:53:52;98873.59;;;0.10;89.79
36284;BME280;56085;48.910;9.478;2022-11-13T07:56:18;98876.56;;;0.14;89.48
36284;BME280;56085;48.910;9.478;2022-11-13T07:58:43;98862.94;;;0.24;90.06
36284;BME280;56085;48.910;9.478;2022-11-13T08:01:09;98856.91;;;0.32;90.05
36284;BME280;56085;48.910;9.478;2022-11-13T08:03:34;98860.97;;;0.35;89.84
36284;BME280;56085;48.910;9.478;2022-11-13T08:06:05;98867.50;;;0.34;90.22
36284;BME280;56085;48.910;9.478;2022-11-13T08:08:31;98855.22;;;0.42;90.03
36284;BME280;56085;48.910;9.478;2022-11-13T08:10:56;98841.03;;;0.50;89.95
36284;BME280;56085;48.910;9.478;2022-11-13T08:13:22;98844.00;;;0.54;90.22
36284;BME280;56085;48.910;9.478;2022-11-13T08:15:47;98846.91;;;0.67;89.87
36284;BME280;56085;48.910;9.478;2022-11-13T08:18:13;98845.22;;;0.77;90.05
36284;BME280;56085;48.910;9.478;2022-11-13T08:20:38;98839.97;;;0.85;90.05
36284;BME280;56085;48.910;9.478;2022-11-13T08:23:04;98837.47;;;0.94;90.18
36284;BME280;56085;48.910;9.478;2022-11-13T08:25:31;98841.13;;;0.79;89.94
36284;BME280;56085;48.910;9.478;2022-11-13T08:27:57;98839.47;;;0.83;90.03
36284;BME280;56085;48.910;9.478;2022-11-13T08:30:24;98828.22;;;0.90;90.53
36284;BME280;56085;48.910;9.478;2022-11-13T08:32:50;98825.41;;;1.00;90.31
36284;BME280;56085;48.910;9.478;2022-11-13T08:35:16;98824.94;;;0.93;90.06
36284;BME280;56085;48.910;9.478;2022-11-13T08:37:42;98827.34;;;1.29;90.20
36284;BME280;56085;48.910;9.478;2022-11-13T08:40:08;98835.41;;;1.45;90.63
36284;BME280;56085;48.910;9.478;2022-11-13T08:42:33;98817.06;;;1.50;90.64
36284;BME280;56085;48.910;9.478;2022-11-13T08:44:58;98818.72;;;1.76;90.38
36284;BME280;56085;48.910;9.478;2022-11-13T08:47:24;98823.47;;;1.89;90.78
36284;BME280;56085;48.910;9.478;2022-11-13T08:49:53;98812.94;;;2.01;90.50
36284;BME280;56085;48.910;9.478;2022-11-13T08:52:18;98798.47;;;2.25;90.59
36284;BME280;56085;48.910;9.478;2022-11-13T08:54:44;98812.31;;;2.29;90.83
36284;BME280;56085;48.910;9.478;2022-11-13T08:57:09;98809.44;;;2.58;90.65
36284;BME280;56085;48.910;9.478;2022-11-13T08:59:34;98797.72;;;2.76;90.62
36284;BME280;56085;48.910;9.478;2022-11-13T09:02:00;98787.50;;;3.01;90.83
36284;BME280;56085;48.910;9.478;2022-11-13T09:04:25;98811.91;;;3.25;90.48
36284;BME280;56085;48.910;9.478;2022-11-13T09:06:51;98803.75;;;3.39;90.44
36284;BME280;56085;48.910;9.478;2022-11-13T09:09:17;98806.44;;;3.58;90.49
36284;BME280;56085;48.910;9.478;2022-11-13T09:11:43;98794.84;;;3.47;90.57
36284;BME280;56085;48.910;9.478;2022-11-13T09:14:08;98800.94;;;3.44;90.38
36284;BME280;56085;48.910;9.478;2022-11-13T09:16:33;98800.16;;;3.58;90.16
36284;BME280;56085;48.910;9.478;2022-11-13T09:18:59;98800.44;;;3.70;90.32
36284;BME280;56085;48.910;9.478;2022-11-13T09:21:24;98806.63;;;3.90;90.02
36284;BME280;56085;48.910;9.478;2022-11-13T09:23:49;98806.28;;;4.19;90.37
36284;BME280;56085;48.910;9.478;2022-11-13T09:26:15;98807.91;;;4.34;90.10
36284;BME280;56085;48.910;9.478;2022-11-13T09:28:40;98799.41;;;4.35;89.85
36284;BME280;56085;48.910;9.478;2022-11-13T09:31:06;98803.16;;;4.40;89.93
36284;BME280;56085;48.910;9.478;2022-11-13T09:33:33;98788.84;;;4.43;89.83
36284;BME280;56085;48.910;9.478;2022-11-13T09:35:58;98804.47;;;4.65;89.86
36284;BME280;56085;48.910;9.478;2022-11-13T09:38:24;98811.78;;;4.55;90.18
36284;BME280;56085;48.910;9.478;2022-11-13T09:40:52;98804.34;;;4.70;89.66
36284;BME280;56085;48.910;9.478;2022-11-13T09:43:35;98799.22;;;4.91;89.63
36284;BME280;56085;48.910;9.478;2022-11-13T09:46:13;98799.94;;;5.28;89.77
36284;BME280;56085;48.910;9.478;2022-11-13T09:48:44;98796.75;;;5.35;89.62
36284;BME280;56085;48.910;9.478;2022-11-13T09:57:59;98789.84;;;5.15;89.16
36284;BME280;56085;48.910;9.478;2022-11-13T10:00:28;98794.53;;;5.14;88.62
36284;BME280;56085;48.910;9.478;2022-11-13T10:05:58;98788.13;;;5.59;88.62
36284;BME280;56085;48.910;9.478;2022-11-13T10:08:30;98789.72;;;5.51;89.01
36284;BME280;56085;48.910;9.478;2022-11-13T10:11:08;98776.16;;;5.46;88.81
36284;BME280;56085;48.910;9.478;2022-11-13T10:13:43;98782.09;;;5.80;88.45
36284;BME280;56085;48.910;9.478;2022-11-13T10:16:27;98781.25;;;6.10;88.89
36284;BME280;56085;48.910;9.478;2022-11-13T10:19:03;98759.50;;;6.40;88.31
36284;BME280;56085;48.910;9.478;2022-11-13T10:21:40;98765.44;;;6.86;88.31
36284;BME280;56085;48.910;9.478;2022-11-13T10:24:15;98770.63;;;6.96;87.68
36284;BME280;56085;48.910;9.478;2022-11-13T10:26:41;98759.94;;;6.95;87.92
36284;BME280;56085;48.910;9.478;2022-11-13T10:29:14;98752.03;;;6.93;87.85
36284;BME280;56085;48.910;9.478;2022-11-13T10:31:51;98737.75;;;7.18;87.81
36284;BME280;56085;48.910;9.478;2022-11-13T10:34:17;98741.72;;;7.76;87.29
36284;BME280;56085;48.910;9.478;2022-11-13T10:37:18;98732.66;;;8.06;87.31
36284;BME280;56085;48.910;9.478;2022-11-13T10:39:45;98725.16;;;8.36;87.05
36284;BME280;56085;48.910;9.478;2022-11-13T10:42:22;98719.63;;;8.45;87.42
36284;BME280;56085;48.910;9.478;2022-11-13T10:44:56;98728.91;;;8.95;86.89
36284;BME280;56085;48.910;9.478;2022-11-13T10:47:27;98725.22;;;9.49;86.28
36284;BME280;56085;48.910;9.478;2022-11-13T10:49:56;98725.38;;;9.77;85.98
36284;BME280;56085;48.910;9.478;2022-11-13T10:52:27;98720.66;;;9.65;85.93
36284;BME280;56085;48.910;9.478;2022-11-13T10:55:15;98706.22;;;10.21;85.47
36284;BME280;56085;48.910;9.478;2022-11-13T10:57:42;98710.16;;;10.61;85.13
36284;BME280;56085;48.910;9.478;2022-11-13T11:00:37;98699.06;;;10.89;84.65
36284;BME280;56085;48.910;9.478;2022-11-13T11:03:19;98706.38;;;11.10;84.31
36284;BME280;56085;48.910;9.478;2022-11-13T11:06:00;98698.84;;;10.66;83.54
36284;BME280;56085;48.910;9.478;2022-11-13T11:08:34;98694.78;;;11.36;83.75
36284;BME280;56085;48.910;9.478;2022-11-13T11:11:12;98724.78;;;13.77;83.26
36284;BME280;56085;48.910;9.478;2022-11-13T11:16:40;98664.50;;;22.40;81.23
36284;BME280;56085;48.910;9.478;2022-11-13T11:19:09;98710.88;;;24.18;78.98
36284;BME280;56085;48.910;9.478;2022-11-13T11:21:37;98621.78;;;23.35;76.59
36284;BME280;56085;48.910;9.478;2022-11-13T11:24:10;98700.13;;;24.72;73.48
36284;BME280;56085;48.910;9.478;2022-11-13T11:27:02;98653.06;;;27.17;70.90
36284;BME280;56085;48.910;9.478;2022-11-13T11:29:33;98655.31;;;27.32;68.08
36284;BME280;56085;48.910;9.478;2022-11-13T11:32:28;98660.91;;;28.60;64.69
36284;BME280;56085;48.910;9.478;2022-11-13T11:35:12;98663.66;;;29.15;61.91
36284;BME280;56085;48.910;9.478;2022-11-13T11:37:46;98662.88;;;29.57;59.68
36284;BME280;56085;48.910;9.478;2022-11-13T11:43:06;98629.03;;;30.77;54.65
36284;BME280;56085;48.910;9.478;2022-11-13T11:45:39;98618.94;;;31.26;52.66
36284;BME280;56085;48.910;9.478;2022-11-13T11:48:20;98627.84;;;32.52;50.78
36284;BME280;56085;48.910;9.478;2022-11-13T11:50:54;98631.47;;;32.47;48.13
36284;BME280;56085;48.910;9.478;2022-11-13T11:53:29;98552.56;;;33.36;46.73
36284;BME280;56085;48.910;9.478;2022-11-13T11:59:03;98531.06;;;32.77;43.18
36284;BME280;56085;48.910;9.478;2022-11-13T12:10:06;98519.28;;;32.69;38.00
36284;BME280;56085;48.910;9.478;2022-11-13T12:23:21;98497.41;;;34.98;34.19
36284;BME280;56085;48.910;9.478;2022-11-13T12:25:54;98495.53;;;34.15;33.34
36284;BME280;56085;48.910;9.478;2022-11-13T12:31:20;98487.13;;;35.25;31.92
36284;BME280;56085;48.910;9.478;2022-11-13T12:36:26;98463.81;;;35.51;30.99
36284;BME280;56085;48.910;9.478;2022-11-13T12:39:04;98437.13;;;34.64;30.04
36284;BME280;56085;48.910;9.478;2022-11-13T12:44:27;98453.38;;;35.48;28.96
36284;BME280;56085;48.910;9.478;2022-11-13T12:46:55;98446.97;;;35.72;28.27
36284;BME280;56085;48.910;9.478;2022-11-13T12:49:34;98472.56;;;35.11;27.86
36284;BME280;56085;48.910;9.478;2022-11-13T12:52:16;98441.78;;;34.72;27.45
36284;BME280;56085;48.910;9.478;2022-11-13T12:54:42;98416.50;;;34.20;27.20
36284;BME280;56085;48.910;9.478;2022-11-13T12:59:41;98472.03;;;33.94;26.54
36284;BME280;56085;48.910;9.478;2022-11-13T13:04:42;98464.69;;;32.73;26.24
36284;BME280;56085;48.910;9.478;2022-11-13T13:07:35;98383.91;;;33.89;25.84
36284;BME280;56085;48.910;9.478;2022-11-13T13:10:47;98441.84;;;34.38;25.33
36284;BME280;56085;48.910;9.478;2022-11-13T13:14:15;98409.22;;;33.19;25.55
36284;BME280;56085;48.910;9.478;2022-11-13T13:16:30;98404.25;;;34.02;25.05
36284;BME280;56085;48.910;9.478;2022-11-13T13:21:46;98365.81;;;33.32;24.92
36284;BME280;56085;48.910;9.478;2022-11-13T13:24:28;98397.66;;;32.21;24.20
36284;BME280;56085;48.910;9.478;2022-11-13T13:26:54;98400.53;;;32.96;24.54
36284;BME280;56085;48.910;9.478;2022-11-13T13:29:23;98423.44;;;32.59;23.92
36284;BME280;56085;48.910;9.478;2022-11-13T13:34:45;98369.59;;;32.57;23.95
36284;BME280;56085;48.910;9.478;2022-11-13T13:42:45;98365.06;;;32.39;23.30
36284;BME280;56085;48.910;9.478;2022-11-13T13:45:35;98336.53;;;33.05;23.48
36284;BME280;56085;48.910;9.478;2022-11-13T13:48:09;98369.22;;;31.80;23.43
36284;BME280;56085;48.910;9.478;2022-11-13T13:50:41;98367.06;;;32.27;23.21
36284;BME280;56085;48.910;9.478;2022-11-13T13:53:11;98375.00;;;32.12;23.23
36284;BME280;56085;48.910;9.478;2022-11-13T13:55:47;98348.16;;;31.77;22.93
36284;BME280;56085;48.910;9.478;2022-11-13T13:58:17;98383.16;;;32.25;22.97
36284;BME280;56085;48.910;9.478;2022-11-13T14:00:54;98349.34;;;32.23;22.37
36284;BME280;56085;48.910;9.478;2022-11-13T14:03:22;98330.72;;;31.49;22.72
36284;BME280;56085;48.910;9.478;2022-11-13T14:05:47;98303.38;;;31.63;22.71
36284;BME280;56085;48.910;9.478;2022-11-13T14:08:24;98320.28;;;31.98;22.79
36284;BME280;56085;48.910;9.478;2022-11-13T14:10:50;98350.91;;;30.98;22.69
36284;BME280;56085;48.910;9.478;2022-11-13T14:13:27;98367.94;;;30.72;22.69